sensor_id;sensor_type;location;lat;lon;timestamp;P1;durP1;ratioP1;P2;durP2;ratioP2
40787;SDS011;26497;52.494;7.546;2023-08-31T00:00:07;63.88;;;58.75;;
40787;SDS011;26497;52.494;7.546;2023-08-31T00:02:37;62.65;;;57.92;;
40787;SDS011;26497;52.494;7.546;2023-08-31T00:05:07;63.53;;;58.75;;
40787;SDS011;26497;52.494;7.546;2023-08-31T00:07:35;61.95;;;57.75;;
40787;SDS011;26497;52.494;7.546;2023-08-31T00:10:02;62.70;;;57.75;;
40787;SDS011;26497;52.494;7.546;2023-08-31T00:12:34;63.15;;;58.03;;
40787;SDS011;26497;52.494;7.546;2023-08-31T00:15:02;63.33;;;57.75;;
40787;SDS011;26497;52.494;7.546;2023-08-31T00:17:30;64.53;;;59.53;;
40787;SDS011;26497;52.494;7.546;2023-08-31T00:19:57;64.53;;;58.22;;
40787;SDS011;26497;52.494;7.546;2023-08-31T00:22:26;62.22;;;56.80;;
40787;SDS011;26497;52.494;7.546;2023-08-31T00:24:56;65.30;;;59.80;;
40787;SDS011;26497;52.494;7.546;2023-08-31T00:27:23;67.43;;;62.35;;
40787;SDS011;26497;52.494;7.546;2023-08-31T00:29:51;73.10;;;66.32;;
40787;SDS011;26497;52.494;7.546;2023-08-31T00:32:18;72.65;;;66.13;;
40787;SDS011;26497;52.494;7.546;2023-08-31T00:34:47;74.68;;;68.00;;
40787;SDS011;26497;52.494;7.546;2023-08-31T00:37:14;77.10;;;70.30;;
40787;SDS011;26497;52.494;7.546;2023-08-31T00:39:43;79.65;;;71.82;;
40787;SDS011;26497;52.494;7.546;2023-08-31T00:42:10;77.40;;;70.13;;
40787;SDS011;26497;52.494;7.546;2023-08-31T00:44:39;76.90;;;71.00;;
40787;SDS011;26497;52.494;7.546;2023-08-31T00:47:06;77.85;;;71.07;;
40787;SDS011;26497;52.494;7.546;2023-08-31T00:49:33;76.68;;;69.38;;
40787;SDS011;26497;52.494;7.546;2023-08-31T00:52:00;76.70;;;69.60;;
40787;SDS011;26497;52.494;7.546;2023-08-31T00:54:27;77.28;;;70.18;;
40787;SDS011;26497;52.494;7.546;2023-08-31T00:56:56;77.07;;;69.50;;
40787;SDS011;26497;52.494;7.546;2023-08-31T00:59:23;75.78;;;68.57;;
40787;SDS011;26497;52.494;7.546;2023-08-31T01:01:52;76.82;;;69.47;;
40787;SDS011;26497;52.494;7.546;2023-08-31T01:04:32;74.25;;;68.13;;
40787;SDS011;26497;52.494;7.546;2023-08-31T01:07:09;75.18;;;68.15;;
40787;SDS011;26497;52.494;7.546;2023-08-31T01:12:25;79.03;;;71.63;;
40787;SDS011;26497;52.494;7.546;2023-08-31T01:15:02;86.38;;;78.18;;
40787;SDS011;26497;52.494;7.546;2023-08-31T01:17:32;84.50;;;76.30;;
40787;SDS011;26497;52.494;7.546;2023-08-31T01:22:33;84.28;;;76.40;;
40787;SDS011;26497;52.494;7.546;2023-08-31T01:25:07;85.55;;;78.45;;
40787;SDS011;26497;52.494;7.546;2023-08-31T01:27:35;83.45;;;76.20;;
40787;SDS011;26497;52.494;7.546;2023-08-31T01:30:04;84.38;;;76.97;;
40787;SDS011;26497;52.494;7.546;2023-08-31T01:32:33;86.97;;;79.00;;
40787;SDS011;26497;52.494;7.546;2023-08-31T01:35:00;88.25;;;80.55;;
40787;SDS011;26497;52.494;7.546;2023-08-31T01:37:31;87.25;;;80.05;;
40787;SDS011;26497;52.494;7.546;2023-08-31T01:40:10;86.22;;;78.72;;
40787;SDS011;26497;52.494;7.546;2023-08-31T01:42:42;92.45;;;84.47;;
40787;SDS011;26497;52.494;7.546;2023-08-31T01:45:10;99.50;;;90.63;;
40787;SDS011;26497;52.494;7.546;2023-08-31T01:47:40;100.90;;;90.97;;
40787;SDS011;26497;52.494;7.546;2023-08-31T01:50:07;101.63;;;93.82;;
40787;SDS011;26497;52.494;7.546;2023-08-31T01:52:36;96.00;;;86.95;;
40787;SDS011;26497;52.494;7.546;2023-08-31T01:55:03;95.45;;;88.15;;
40787;SDS011;26497;52.494;7.546;2023-08-31T01:57:32;99.78;;;91.25;;
40787;SDS011;26497;52.494;7.546;2023-08-31T01:59:59;100.93;;;90.90;;
40787;SDS011;26497;52.494;7.546;2023-08-31T02:02:29;95.75;;;88.32;;
40787;SDS011;26497;52.494;7.546;2023-08-31T02:04:56;98.03;;;89.20;;
40787;SDS011;26497;52.494;7.546;2023-08-31T02:07:26;97.75;;;89.32;;
40787;SDS011;26497;52.494;7.546;2023-08-31T02:09:53;97.72;;;89.63;;
40787;SDS011;26497;52.494;7.546;2023-08-31T02:12:20;97.63;;;89.13;;
40787;SDS011;26497;52.494;7.546;2023-08-31T02:14:49;97.45;;;89.03;;
40787;SDS011;26497;52.494;7.546;2023-08-31T02:17:16;97.75;;;88.50;;
40787;SDS011;26497;52.494;7.546;2023-08-31T02:19:43;100.90;;;92.00;;
40787;SDS011;26497;52.494;7.546;2023-08-31T02:22:10;100.65;;;91.45;;
40787;SDS011;26497;52.494;7.546;2023-08-31T02:24:37;101.30;;;91.95;;
40787;SDS011;26497;52.494;7.546;2023-08-31T02:27:04;100.25;;;90.90;;
40787;SDS011;26497;52.494;7.546;2023-08-31T02:29:31;101.03;;;91.50;;
40787;SDS011;26497;52.494;7.546;2023-08-31T02:32:00;98.47;;;89.20;;
40787;SDS011;26497;52.494;7.546;2023-08-31T02:34:29;100.68;;;90.78;;
40787;SDS011;26497;52.494;7.546;2023-08-31T02:36:56;101.60;;;91.70;;
40787;SDS011;26497;52.494;7.546;2023-08-31T02:39:23;103.53;;;94.10;;
40787;SDS011;26497;52.494;7.546;2023-08-31T02:41:50;99.85;;;89.95;;
40787;SDS011;26497;52.494;7.546;2023-08-31T02:44:17;101.82;;;92.68;;
40787;SDS011;26497;52.494;7.546;2023-08-31T02:46:44;99.97;;;90.32;;
40787;SDS011;26497;52.494;7.546;2023-08-31T02:49:12;99.18;;;90.32;;
40787;SDS011;26497;52.494;7.546;2023-08-31T02:51:39;100.88;;;91.63;;
40787;SDS011;26497;52.494;7.546;2023-08-31T02:54:06;102.10;;;92.32;;
40787;SDS011;26497;52.494;7.546;2023-08-31T02:56:33;104.45;;;94.28;;
40787;SDS011;26497;52.494;7.546;2023-08-31T02:59:00;101.05;;;90.53;;
40787;SDS011;26497;52.494;7.546;2023-08-31T03:01:27;99.18;;;89.53;;
40787;SDS011;26497;52.494;7.546;2023-08-31T03:03:54;103.63;;;93.10;;
40787;SDS011;26497;52.494;7.546;2023-08-31T03:06:23;100.53;;;91.15;;
40787;SDS011;26497;52.494;7.546;2023-08-31T03:08:50;103.15;;;92.85;;
40787;SDS011;26497;52.494;7.546;2023-08-31T03:11:17;104.50;;;94.20;;
40787;SDS011;26497;52.494;7.546;2023-08-31T03:13:44;104.90;;;95.07;;
40787;SDS011;26497;52.494;7.546;2023-08-31T03:16:11;106.15;;;95.40;;
40787;SDS011;26497;52.494;7.546;2023-08-31T03:18:37;109.05;;;97.53;;
40787;SDS011;26497;52.494;7.546;2023-08-31T03:21:04;105.15;;;94.22;;
40787;SDS011;26497;52.494;7.546;2023-08-31T03:23:33;107.63;;;96.35;;
40787;SDS011;26497;52.494;7.546;2023-08-31T03:26:05;107.47;;;96.75;;
40787;SDS011;26497;52.494;7.546;2023-08-31T03:28:33;106.07;;;95.72;;
40787;SDS011;26497;52.494;7.546;2023-08-31T03:31:00;108.43;;;97.93;;
40787;SDS011;26497;52.494;7.546;2023-08-31T03:33:27;104.93;;;94.68;;
40787;SDS011;26497;52.494;7.546;2023-08-31T03:35:59;102.13;;;91.32;;
40787;SDS011;26497;52.494;7.546;2023-08-31T03:38:29;95.97;;;87.07;;
40787;SDS011;26497;52.494;7.546;2023-08-31T03:40:58;94.35;;;84.93;;
40787;SDS011;26497;52.494;7.546;2023-08-31T03:43:25;95.03;;;84.82;;
40787;SDS011;26497;52.494;7.546;2023-08-31T03:45:54;94.80;;;84.95;;
40787;SDS011;26497;52.494;7.546;2023-08-31T03:48:22;91.00;;;81.40;;
40787;SDS011;26497;52.494;7.546;2023-08-31T03:50:50;87.93;;;79.20;;
40787;SDS011;26497;52.494;7.546;2023-08-31T03:53:17;89.07;;;80.28;;
40787;SDS011;26497;52.494;7.546;2023-08-31T03:55:44;91.13;;;78.53;;
40787;SDS011;26497;52.494;7.546;2023-08-31T03:58:13;91.70;;;82.10;;
40787;SDS011;26497;52.494;7.546;2023-08-31T04:00:40;95.03;;;85.28;;
40787;SDS011;26497;52.494;7.546;2023-08-31T04:03:07;96.53;;;86.43;;
40787;SDS011;26497;52.494;7.546;2023-08-31T04:05:35;100.10;;;88.47;;
40787;SDS011;26497;52.494;7.546;2023-08-31T04:08:02;101.10;;;90.53;;
40787;SDS011;26497;52.494;7.546;2023-08-31T04:10:30;103.07;;;92.10;;
40787;SDS011;26497;52.494;7.546;2023-08-31T04:12:57;104.88;;;94.18;;
40787;SDS011;26497;52.494;7.546;2023-08-31T04:15:26;103.88;;;92.85;;
40787;SDS011;26497;52.494;7.546;2023-08-31T04:17:53;100.57;;;90.95;;
40787;SDS011;26497;52.494;7.546;2023-08-31T04:20:20;107.65;;;97.30;;
40787;SDS011;26497;52.494;7.546;2023-08-31T04:22:47;99.93;;;89.85;;
40787;SDS011;26497;52.494;7.546;2023-08-31T04:25:14;101.97;;;91.40;;
40787;SDS011;26497;52.494;7.546;2023-08-31T04:27:41;99.60;;;89.95;;
40787;SDS011;26497;52.494;7.546;2023-08-31T04:30:11;105.00;;;93.50;;
40787;SDS011;26497;52.494;7.546;2023-08-31T04:32:39;103.18;;;92.53;;
40787;SDS011;26497;52.494;7.546;2023-08-31T04:35:07;100.32;;;90.40;;
40787;SDS011;26497;52.494;7.546;2023-08-31T04:37:35;107.45;;;94.15;;
40787;SDS011;26497;52.494;7.546;2023-08-31T04:40:02;101.72;;;90.85;;
40787;SDS011;26497;52.494;7.546;2023-08-31T04:42:30;99.22;;;88.63;;
40787;SDS011;26497;52.494;7.546;2023-08-31T04:44:57;104.68;;;93.05;;
40787;SDS011;26497;52.494;7.546;2023-08-31T04:47:24;106.20;;;94.03;;
40787;SDS011;26497;52.494;7.546;2023-08-31T04:49:52;104.18;;;93.18;;
40787;SDS011;26497;52.494;7.546;2023-08-31T04:52:19;123.63;;;98.00;;
40787;SDS011;26497;52.494;7.546;2023-08-31T04:54:46;116.93;;;96.25;;
40787;SDS011;26497;52.494;7.546;2023-08-31T04:57:13;112.93;;;99.75;;
40787;SDS011;26497;52.494;7.546;2023-08-31T04:59:40;117.18;;;98.90;;
40787;SDS011;26497;52.494;7.546;2023-08-31T05:02:07;124.47;;;101.25;;
40787;SDS011;26497;52.494;7.546;2023-08-31T05:04:34;117.07;;;104.72;;
40787;SDS011;26497;52.494;7.546;2023-08-31T05:07:02;140.20;;;108.32;;
40787;SDS011;26497;52.494;7.546;2023-08-31T05:09:30;132.02;;;105.30;;
40787;SDS011;26497;52.494;7.546;2023-08-31T05:11:59;131.95;;;107.57;;
40787;SDS011;26497;52.494;7.546;2023-08-31T05:14:26;139.70;;;108.75;;
40787;SDS011;26497;52.494;7.546;2023-08-31T05:16:53;142.07;;;107.10;;
40787;SDS011;26497;52.494;7.546;2023-08-31T05:19:20;136.60;;;105.13;;
40787;SDS011;26497;52.494;7.546;2023-08-31T05:21:48;132.23;;;102.43;;
40787;SDS011;26497;52.494;7.546;2023-08-31T05:24:16;131.85;;;102.82;;
40787;SDS011;26497;52.494;7.546;2023-08-31T05:26:43;138.82;;;109.05;;
40787;SDS011;26497;52.494;7.546;2023-08-31T05:29:10;135.27;;;108.57;;
40787;SDS011;26497;52.494;7.546;2023-08-31T05:31:37;129.10;;;103.20;;
40787;SDS011;26497;52.494;7.546;2023-08-31T05:34:04;139.38;;;105.45;;
40787;SDS011;26497;52.494;7.546;2023-08-31T05:36:31;127.70;;;105.25;;
40787;SDS011;26497;52.494;7.546;2023-08-31T05:38:58;137.32;;;105.78;;
40787;SDS011;26497;52.494;7.546;2023-08-31T05:41:26;124.28;;;106.35;;
40787;SDS011;26497;52.494;7.546;2023-08-31T05:43:53;136.75;;;112.35;;
40787;SDS011;26497;52.494;7.546;2023-08-31T05:46:20;132.30;;;114.50;;
40787;SDS011;26497;52.494;7.546;2023-08-31T05:48:47;133.73;;;114.47;;
40787;SDS011;26497;52.494;7.546;2023-08-31T05:51:14;141.20;;;116.97;;
40787;SDS011;26497;52.494;7.546;2023-08-31T05:53:41;137.25;;;115.25;;
40787;SDS011;26497;52.494;7.546;2023-08-31T05:56:08;142.07;;;118.78;;
40787;SDS011;26497;52.494;7.546;2023-08-31T05:58:36;136.10;;;118.78;;
40787;SDS011;26497;52.494;7.546;2023-08-31T06:01:03;134.32;;;119.88;;
40787;SDS011;26497;52.494;7.546;2023-08-31T06:03:31;133.65;;;119.43;;
40787;SDS011;26497;52.494;7.546;2023-08-31T06:05:58;133.05;;;118.10;;
40787;SDS011;26497;52.494;7.546;2023-08-31T06:08:25;132.55;;;118.32;;
40787;SDS011;26497;52.494;7.546;2023-08-31T06:10:53;128.85;;;116.45;;
40787;SDS011;26497;52.494;7.546;2023-08-31T06:13:20;127.38;;;113.88;;
40787;SDS011;26497;52.494;7.546;2023-08-31T06:15:48;129.70;;;116.93;;
40787;SDS011;26497;52.494;7.546;2023-08-31T06:18:15;124.15;;;111.85;;
40787;SDS011;26497;52.494;7.546;2023-08-31T06:20:42;119.55;;;107.97;;
40787;SDS011;26497;52.494;7.546;2023-08-31T06:23:09;116.57;;;106.07;;
40787;SDS011;26497;52.494;7.546;2023-08-31T06:25:36;115.63;;;104.80;;
40787;SDS011;26497;52.494;7.546;2023-08-31T06:28:04;111.95;;;101.00;;
40787;SDS011;26497;52.494;7.546;2023-08-31T06:30:33;106.53;;;98.15;;
40787;SDS011;26497;52.494;7.546;2023-08-31T06:33:02;100.22;;;92.20;;
40787;SDS011;26497;52.494;7.546;2023-08-31T06:35:29;93.57;;;85.55;;
40787;SDS011;26497;52.494;7.546;2023-08-31T06:37:57;95.45;;;88.43;;
40787;SDS011;26497;52.494;7.546;2023-08-31T06:40:24;98.25;;;91.70;;
40787;SDS011;26497;52.494;7.546;2023-08-31T06:42:51;100.82;;;94.10;;
40787;SDS011;26497;52.494;7.546;2023-08-31T06:45:18;111.85;;;104.85;;
40787;SDS011;26497;52.494;7.546;2023-08-31T06:47:45;102.75;;;95.35;;
40787;SDS011;26497;52.494;7.546;2023-08-31T06:50:13;102.00;;;95.32;;
40787;SDS011;26497;52.494;7.546;2023-08-31T06:52:41;97.57;;;91.78;;
40787;SDS011;26497;52.494;7.546;2023-08-31T06:55:09;101.13;;;95.15;;
40787;SDS011;26497;52.494;7.546;2023-08-31T06:57:36;80.72;;;75.90;;
40787;SDS011;26497;52.494;7.546;2023-08-31T07:00:04;56.65;;;53.20;;
40787;SDS011;26497;52.494;7.546;2023-08-31T07:02:33;38.97;;;36.50;;
40787;SDS011;26497;52.494;7.546;2023-08-31T07:05:00;41.30;;;39.05;;
40787;SDS011;26497;52.494;7.546;2023-08-31T07:07:30;41.35;;;38.42;;
40787;SDS011;26497;52.494;7.546;2023-08-31T07:09:57;43.55;;;40.97;;
40787;SDS011;26497;52.494;7.546;2023-08-31T07:12:24;59.97;;;55.65;;
40787;SDS011;26497;52.494;7.546;2023-08-31T07:14:51;63.20;;;59.50;;
40787;SDS011;26497;52.494;7.546;2023-08-31T07:17:18;76.82;;;72.40;;
40787;SDS011;26497;52.494;7.546;2023-08-31T07:19:46;63.42;;;59.72;;
40787;SDS011;26497;52.494;7.546;2023-08-31T07:22:13;54.08;;;50.97;;
40787;SDS011;26497;52.494;7.546;2023-08-31T07:24:41;47.33;;;44.60;;
40787;SDS011;26497;52.494;7.546;2023-08-31T07:27:09;44.63;;;41.83;;
40787;SDS011;26497;52.494;7.546;2023-08-31T07:29:36;43.08;;;40.53;;
40787;SDS011;26497;52.494;7.546;2023-08-31T07:32:03;42.08;;;39.63;;
40787;SDS011;26497;52.494;7.546;2023-08-31T07:34:30;43.05;;;40.35;;
40787;SDS011;26497;52.494;7.546;2023-08-31T07:36:58;44.75;;;42.15;;
40787;SDS011;26497;52.494;7.546;2023-08-31T07:39:25;48.13;;;44.83;;
40787;SDS011;26497;52.494;7.546;2023-08-31T07:41:54;49.60;;;45.55;;
40787;SDS011;26497;52.494;7.546;2023-08-31T07:44:21;45.47;;;42.65;;
40787;SDS011;26497;52.494;7.546;2023-08-31T07:46:48;44.85;;;41.83;;
40787;SDS011;26497;52.494;7.546;2023-08-31T07:49:15;44.63;;;41.95;;
40787;SDS011;26497;52.494;7.546;2023-08-31T07:51:42;42.13;;;39.42;;
40787;SDS011;26497;52.494;7.546;2023-08-31T07:54:10;43.78;;;40.80;;
40787;SDS011;26497;52.494;7.546;2023-08-31T07:56:37;42.55;;;39.85;;
40787;SDS011;26497;52.494;7.546;2023-08-31T07:59:07;43.38;;;40.88;;
40787;SDS011;26497;52.494;7.546;2023-08-31T08:01:34;48.20;;;45.33;;
40787;SDS011;26497;52.494;7.546;2023-08-31T08:04:01;50.78;;;47.55;;
40787;SDS011;26497;52.494;7.546;2023-08-31T08:06:28;61.05;;;56.97;;
40787;SDS011;26497;52.494;7.546;2023-08-31T08:08:55;53.20;;;49.88;;
40787;SDS011;26497;52.494;7.546;2023-08-31T08:11:22;60.47;;;57.03;;
40787;SDS011;26497;52.494;7.546;2023-08-31T08:13:49;1999.90;;;999.90;;
40787;SDS011;26497;52.494;7.546;2023-08-31T08:16:18;1999.90;;;999.90;;
40787;SDS011;26497;52.494;7.546;2023-08-31T08:18:45;1999.90;;;999.90;;
40787;SDS011;26497;52.494;7.546;2023-08-31T08:21:12;1999.90;;;999.90;;
40787;SDS011;26497;52.494;7.546;2023-08-31T08:23:39;1999.90;;;999.90;;
40787;SDS011;26497;52.494;7.546;2023-08-31T08:26:05;1999.90;;;999.90;;
40787;SDS011;26497;52.494;7.546;2023-08-31T08:28:32;1999.90;;;999.90;;
40787;SDS011;26497;52.494;7.546;2023-08-31T08:31:00;1999.90;;;999.90;;
40787;SDS011;26497;52.494;7.546;2023-08-31T08:33:30;1999.90;;;999.90;;
40787;SDS011;26497;52.494;7.546;2023-08-31T08:35:57;1999.90;;;999.90;;
40787;SDS011;26497;52.494;7.546;2023-08-31T08:38:24;1999.90;;;999.90;;
40787;SDS011;26497;52.494;7.546;2023-08-31T08:40:52;1999.90;;;999.90;;
40787;SDS011;26497;52.494;7.546;2023-08-31T08:43:20;1999.90;;;999.90;;
40787;SDS011;26497;52.494;7.546;2023-08-31T08:45:52;1999.90;;;999.90;;
40787;SDS011;26497;52.494;7.546;2023-08-31T08:48:20;1999.90;;;999.90;;
40787;SDS011;26497;52.494;7.546;2023-08-31T08:50:49;1999.90;;;999.90;;
40787;SDS011;26497;52.494;7.546;2023-08-31T08:53:16;1999.90;;;999.90;;
40787;SDS011;26497;52.494;7.546;2023-08-31T08:55:43;1999.90;;;999.90;;
40787;SDS011;26497;52.494;7.546;2023-08-31T08:58:10;1999.90;;;999.90;;
40787;SDS011;26497;52.494;7.546;2023-08-31T09:00:37;1999.90;;;999.90;;
40787;SDS011;26497;52.494;7.546;2023-08-31T09:03:06;1999.90;;;999.90;;
40787;SDS011;26497;52.494;7.546;2023-08-31T09:05:33;1999.90;;;999.90;;
40787;SDS011;26497;52.494;7.546;2023-08-31T09:08:01;1999.90;;;999.90;;
40787;SDS011;26497;52.494;7.546;2023-08-31T09:10:33;1999.90;;;999.90;;
40787;SDS011;26497;52.494;7.546;2023-08-31T09:13:05;1999.90;;;999.90;;
40787;SDS011;26497;52.494;7.546;2023-08-31T09:15:40;1999.90;;;999.90;;
40787;SDS011;26497;52.494;7.546;2023-08-31T09:18:16;1999.90;;;999.90;;
40787;SDS011;26497;52.494;7.546;2023-08-31T09:20:50;1999.90;;;999.90;;
40787;SDS011;26497;52.494;7.546;2023-08-31T09:23:19;1999.90;;;999.90;;
40787;SDS011;26497;52.494;7.546;2023-08-31T09:25:47;1999.90;;;999.90;;
40787;SDS011;26497;52.494;7.546;2023-08-31T09:28:16;1999.90;;;999.90;;
40787;SDS011;26497;52.494;7.546;2023-08-31T09:30:46;1999.90;;;999.90;;
40787;SDS011;26497;52.494;7.546;2023-08-31T09:33:15;1999.90;;;999.90;;
40787;SDS011;26497;52.494;7.546;2023-08-31T09:35:49;1999.90;;;999.90;;
40787;SDS011;26497;52.494;7.546;2023-08-31T09:38:18;1999.90;;;999.90;;
40787;SDS011;26497;52.494;7.546;2023-08-31T09:40:46;1999.90;;;999.90;;
40787;SDS011;26497;52.494;7.546;2023-08-31T09:43:18;1999.90;;;999.90;;
40787;SDS011;26497;52.494;7.546;2023-08-31T09:45:46;1999.90;;;999.90;;
40787;SDS011;26497;52.494;7.546;2023-08-31T09:48:14;1999.90;;;999.90;;
40787;SDS011;26497;52.494;7.546;2023-08-31T09:50:42;1999.90;;;999.90;;
40787;SDS011;26497;52.494;7.546;2023-08-31T09:53:11;1999.90;;;999.90;;
40787;SDS011;26497;52.494;7.546;2023-08-31T09:55:40;1999.90;;;999.90;;
40787;SDS011;26497;52.494;7.546;2023-08-31T09:58:09;1999.90;;;999.90;;
40787;SDS011;26497;52.494;7.546;2023-08-31T10:00:37;1999.90;;;999.90;;
40787;SDS011;26497;52.494;7.546;2023-08-31T10:03:04;1999.90;;;999.90;;
40787;SDS011;26497;52.494;7.546;2023-08-31T10:05:31;1999.90;;;999.90;;
40787;SDS011;26497;52.494;7.546;2023-08-31T10:07:59;1999.90;;;999.90;;
40787;SDS011;26497;52.494;7.546;2023-08-31T10:10:27;1999.90;;;999.90;;
40787;SDS011;26497;52.494;7.546;2023-08-31T10:12:56;1999.90;;;999.90;;
40787;SDS011;26497;52.494;7.546;2023-08-31T10:15:26;1999.90;;;999.90;;
40787;SDS011;26497;52.494;7.546;2023-08-31T10:17:59;1999.90;;;999.90;;
40787;SDS011;26497;52.494;7.546;2023-08-31T10:20:28;1999.90;;;999.90;;
40787;SDS011;26497;52.494;7.546;2023-08-31T10:22:58;1999.90;;;999.90;;
40787;SDS011;26497;52.494;7.546;2023-08-31T10:25:25;1999.90;;;999.90;;
40787;SDS011;26497;52.494;7.546;2023-08-31T10:28:37;1999.90;;;999.90;;
40787;SDS011;26497;52.494;7.546;2023-08-31T10:31:09;1999.90;;;999.90;;
40787;SDS011;26497;52.494;7.546;2023-08-31T10:33:41;1999.90;;;999.90;;
40787;SDS011;26497;52.494;7.546;2023-08-31T10:36:09;1999.90;;;999.90;;
40787;SDS011;26497;52.494;7.546;2023-08-31T10:38:39;1999.90;;;999.90;;
40787;SDS011;26497;52.494;7.546;2023-08-31T10:41:17;1999.90;;;999.90;;
40787;SDS011;26497;52.494;7.546;2023-08-31T10:43:48;1999.90;;;999.90;;
40787;SDS011;26497;52.494;7.546;2023-08-31T10:46:17;1999.90;;;999.90;;
40787;SDS011;26497;52.494;7.546;2023-08-31T10:48:49;1999.90;;;999.90;;
40787;SDS011;26497;52.494;7.546;2023-08-31T10:51:17;1999.90;;;999.90;;
40787;SDS011;26497;52.494;7.546;2023-08-31T10:53:47;1999.90;;;999.90;;
40787;SDS011;26497;52.494;7.546;2023-08-31T10:56:15;1999.90;;;999.90;;
40787;SDS011;26497;52.494;7.546;2023-08-31T10:58:43;1999.90;;;999.90;;
40787;SDS011;26497;52.494;7.546;2023-08-31T11:04:23;1999.90;;;999.90;;
40787;SDS011;26497;52.494;7.546;2023-08-31T11:09:42;1999.90;;;999.90;;
40787;SDS011;26497;52.494;7.546;2023-08-31T11:12:10;1999.90;;;999.90;;
40787;SDS011;26497;52.494;7.546;2023-08-31T11:14:40;1999.90;;;999.90;;
40787;SDS011;26497;52.494;7.546;2023-08-31T11:17:07;1999.90;;;999.90;;
40787;SDS011;26497;52.494;7.546;2023-08-31T11:19:35;1999.90;;;999.90;;
40787;SDS011;26497;52.494;7.546;2023-08-31T11:22:04;1999.90;;;999.90;;
40787;SDS011;26497;52.494;7.546;2023-08-31T11:24:34;1999.90;;;999.90;;
40787;SDS011;26497;52.494;7.546;2023-08-31T11:27:02;1999.90;;;999.90;;
40787;SDS011;26497;52.494;7.546;2023-08-31T11:29:36;1999.90;;;999.90;;
40787;SDS011;26497;52.494;7.546;2023-08-31T11:32:06;1999.90;;;999.90;;
40787;SDS011;26497;52.494;7.546;2023-08-31T11:34:33;1999.90;;;999.90;;
40787;SDS011;26497;52.494;7.546;2023-08-31T11:37:01;1999.90;;;999.90;;
40787;SDS011;26497;52.494;7.546;2023-08-31T11:39:30;1999.90;;;999.90;;
40787;SDS011;26497;52.494;7.546;2023-08-31T11:41:58;1999.90;;;999.90;;
40787;SDS011;26497;52.494;7.546;2023-08-31T11:44:25;1999.90;;;999.90;;
40787;SDS011;26497;52.494;7.546;2023-08-31T11:46:52;1999.90;;;999.90;;
40787;SDS011;26497;52.494;7.546;2023-08-31T11:49:21;1999.90;;;999.90;;
40787;SDS011;26497;52.494;7.546;2023-08-31T11:51:48;1999.90;;;999.90;;
40787;SDS011;26497;52.494;7.546;2023-08-31T11:54:16;1999.90;;;999.90;;
40787;SDS011;26497;52.494;7.546;2023-08-31T11:56:44;113.18;;;107.10;;
40787;SDS011;26497;52.494;7.546;2023-08-31T11:59:15;136.13;;;128.40;;
40787;SDS011;26497;52.494;7.546;2023-08-31T12:01:43;122.15;;;115.40;;
40787;SDS011;26497;52.494;7.546;2023-08-31T12:04:13;103.10;;;97.75;;
40787;SDS011;26497;52.494;7.546;2023-08-31T12:06:42;116.78;;;110.70;;
40787;SDS011;26497;52.494;7.546;2023-08-31T12:09:13;131.98;;;124.72;;
40787;SDS011;26497;52.494;7.546;2023-08-31T12:11:40;112.53;;;106.63;;
40787;SDS011;26497;52.494;7.546;2023-08-31T12:14:18;100.53;;;95.20;;
40787;SDS011;26497;52.494;7.546;2023-08-31T12:16:46;102.63;;;97.07;;
40787;SDS011;26497;52.494;7.546;2023-08-31T12:19:14;78.07;;;73.45;;
40787;SDS011;26497;52.494;7.546;2023-08-31T12:21:43;58.83;;;55.25;;
40787;SDS011;26497;52.494;7.546;2023-08-31T12:24:12;50.75;;;47.25;;
40787;SDS011;26497;52.494;7.546;2023-08-31T12:26:40;50.88;;;48.20;;
40787;SDS011;26497;52.494;7.546;2023-08-31T12:29:08;55.63;;;52.33;;
40787;SDS011;26497;52.494;7.546;2023-08-31T12:31:35;65.10;;;61.70;;
40787;SDS011;26497;52.494;7.546;2023-08-31T12:34:03;88.85;;;82.82;;
40787;SDS011;26497;52.494;7.546;2023-08-31T12:36:31;113.57;;;107.50;;
40787;SDS011;26497;52.494;7.546;2023-08-31T12:39:00;130.40;;;122.82;;
40787;SDS011;26497;52.494;7.546;2023-08-31T12:41:31;152.27;;;143.88;;
40787;SDS011;26497;52.494;7.546;2023-08-31T12:43:58;160.52;;;151.52;;
40787;SDS011;26497;52.494;7.546;2023-08-31T12:46:25;146.38;;;137.55;;
40787;SDS011;26497;52.494;7.546;2023-08-31T12:48:52;127.55;;;119.50;;
40787;SDS011;26497;52.494;7.546;2023-08-31T12:51:19;85.22;;;80.63;;
40787;SDS011;26497;52.494;7.546;2023-08-31T12:53:46;58.30;;;54.85;;
40787;SDS011;26497;52.494;7.546;2023-08-31T12:56:14;52.80;;;49.40;;
40787;SDS011;26497;52.494;7.546;2023-08-31T12:58:47;47.10;;;44.35;;
40787;SDS011;26497;52.494;7.546;2023-08-31T13:01:15;42.70;;;40.15;;
40787;SDS011;26497;52.494;7.546;2023-08-31T13:03:42;41.85;;;39.33;;
40787;SDS011;26497;52.494;7.546;2023-08-31T13:06:10;40.55;;;38.17;;
40787;SDS011;26497;52.494;7.546;2023-08-31T13:08:37;40.60;;;38.08;;
40787;SDS011;26497;52.494;7.546;2023-08-31T13:11:04;40.88;;;38.38;;
40787;SDS011;26497;52.494;7.546;2023-08-31T13:13:33;42.15;;;39.83;;
40787;SDS011;26497;52.494;7.546;2023-08-31T13:16:00;43.50;;;41.08;;
40787;SDS011;26497;52.494;7.546;2023-08-31T13:18:27;44.53;;;41.05;;
40787;SDS011;26497;52.494;7.546;2023-08-31T13:20:55;44.05;;;41.55;;
40787;SDS011;26497;52.494;7.546;2023-08-31T13:23:22;45.35;;;42.33;;
40787;SDS011;26497;52.494;7.546;2023-08-31T13:25:49;52.30;;;48.58;;
40787;SDS011;26497;52.494;7.546;2023-08-31T13:28:18;45.90;;;43.30;;
40787;SDS011;26497;52.494;7.546;2023-08-31T13:30:46;47.00;;;44.47;;
40787;SDS011;26497;52.494;7.546;2023-08-31T13:33:13;106.50;;;100.63;;
40787;SDS011;26497;52.494;7.546;2023-08-31T13:35:40;81.95;;;77.40;;
40787;SDS011;26497;52.494;7.546;2023-08-31T13:38:07;91.88;;;86.95;;
40787;SDS011;26497;52.494;7.546;2023-08-31T13:40:34;90.97;;;86.05;;
40787;SDS011;26497;52.494;7.546;2023-08-31T13:43:02;84.53;;;80.07;;
40787;SDS011;26497;52.494;7.546;2023-08-31T13:45:29;71.90;;;68.22;;
40787;SDS011;26497;52.494;7.546;2023-08-31T13:47:59;68.82;;;65.22;;
40787;SDS011;26497;52.494;7.546;2023-08-31T13:50:26;67.78;;;64.28;;
40787;SDS011;26497;52.494;7.546;2023-08-31T13:52:53;70.78;;;67.07;;
40787;SDS011;26497;52.494;7.546;2023-08-31T13:55:20;90.03;;;85.05;;
40787;SDS011;26497;52.494;7.546;2023-08-31T13:57:48;113.95;;;108.00;;
40787;SDS011;26497;52.494;7.546;2023-08-31T14:00:15;113.90;;;107.70;;
40787;SDS011;26497;52.494;7.546;2023-08-31T14:02:43;108.90;;;103.13;;
40787;SDS011;26497;52.494;7.546;2023-08-31T14:05:11;91.25;;;86.43;;
40787;SDS011;26497;52.494;7.546;2023-08-31T14:07:39;116.22;;;109.97;;
40787;SDS011;26497;52.494;7.546;2023-08-31T14:10:07;79.57;;;75.38;;
40787;SDS011;26497;52.494;7.546;2023-08-31T14:12:35;95.45;;;90.30;;
40787;SDS011;26497;52.494;7.546;2023-08-31T14:15:02;100.22;;;94.45;;
40787;SDS011;26497;52.494;7.546;2023-08-31T14:17:31;91.38;;;86.30;;
40787;SDS011;26497;52.494;7.546;2023-08-31T14:19:58;72.93;;;69.10;;
40787;SDS011;26497;52.494;7.546;2023-08-31T14:22:32;76.55;;;72.35;;